• Join FlightAware (Why Join?)
  • Login
  • US Flag 
12:44PM EDT


 

Airport Tracker/Info


-or-


 

Live Flight TrackerFlight Track Log ✈ CCA1754 ✈ 11-Apr-2013 ✈ ZPPP / KMG - ZSHC / HGH

Flight Track Log - Related Links

Times and Time Zones

All times are in EDT time to prevent confusion due to time zone crossing. See the CCA1754 flight status page for this flight to view local times or setup timezone preferences in your user account.

Time Position Orientation Groundspeed Altitude Reporting Facility
EDT Latitude Longitude Course Direction KTS MPH feet Rate Location/Type
09:14AM 25.3418 103.5815 68° East  Level Estimated
09:15AM 25.3894 103.7123 68° East  Level Estimated
09:16AM 25.4369 103.8432 68° East  Level Estimated
09:17AM 25.4843 103.9742 68° East  Level Estimated
09:18AM 25.5315 104.1053 68° East  Level Estimated
09:19AM 25.5787 104.2365 68° East  Level Estimated
09:20AM 25.6257 104.3678 68° East  Level Estimated
09:21AM 25.6726 104.4992 68° East  Level Estimated
09:22AM 25.7194 104.6307 68° East  Level Estimated
09:23AM 25.7661 104.7623 68° East  Level Estimated
09:24AM 25.8127 104.8940 69° East  Level Estimated
09:25AM 25.8591 105.0258 69° East  Level Estimated
09:26AM 25.9055 105.1578 69° East  Level Estimated
09:27AM 25.9517 105.2898 69° East  Level Estimated
09:28AM 25.9978 105.4219 69° East  Level Estimated
09:29AM 26.0437 105.5541 69° East  Level Estimated
09:30AM 26.0896 105.6865 69° East  Level Estimated
09:31AM 26.1353 105.8189 69° East  Level Estimated
09:32AM 26.1809 105.9514 69° East  Level Estimated
09:33AM 26.2264 106.0841 69° East  Level Estimated
09:34AM 26.2718 106.2169 69° East  Level Estimated
09:35AM 26.3170 106.3497 69° East  Level Estimated
09:36AM 26.3621 106.4827 69° East  Level Estimated
09:37AM 26.4071 106.6157 69° East  Level Estimated
09:38AM 26.4520 106.7489 69° East  Level Estimated
09:39AM 26.4967 106.8821 69° East  Level Estimated
09:40AM 26.5413 107.0155 69° East  Level Estimated
09:41AM 26.5858 107.1490 70° East  Level Estimated
09:42AM 26.6302 107.2826 70° East  Level Estimated
09:43AM 26.6745 107.4163 70° East  Level Estimated
09:44AM 26.7186 107.5500 70° East  Level Estimated
09:45AM 26.7626 107.6839 70° East  Level Estimated
09:46AM 26.8065 107.8179 70° East  Level Estimated
09:47AM 26.8502 107.9520 70° East  Level Estimated
09:48AM 26.8938 108.0862 70° East  Level Estimated
09:49AM 26.9373 108.2205 70° East  Level Estimated
09:50AM 26.9807 108.3549 70° East  Level Estimated
09:51AM 27.0239 108.4894 70° East  Level Estimated
09:52AM 27.0670 108.6240 70° East  Level Estimated
09:53AM 27.1100 108.7588 70° East  Level Estimated
09:54AM 27.1529 108.8936 70° East  Level Estimated
09:55AM 27.1956 109.0285 70° East  Level Estimated
09:56AM 27.2382 109.1635 70° East  Level Estimated
09:57AM 27.2807 109.2987 70° East  Level Estimated
09:58AM 27.3230 109.4339 71° East  Level Estimated
09:59AM 27.3652 109.5692 71° East  Level Estimated
10:00AM 27.4073 109.7047 71° East  Level Estimated
10:01AM 27.4492 109.8402 71° East  Level Estimated
10:02AM 27.4910 109.9759 71° East  Level Estimated
10:03AM 27.5327 110.1116 71° East  Level Estimated
10:04AM 27.5743 110.2475 71° East  Level Estimated
10:05AM 27.6157 110.3834 71° East  Level Estimated
10:06AM 27.6570 110.5195 71° East  Level Estimated
10:07AM 27.6981 110.6556 71° East  Level Estimated
10:08AM 27.7391 110.7919 71° East  Level Estimated
10:09AM 27.7800 110.9283 71° East  Level Estimated
10:10AM 27.8208 111.0647 71° East  Level Estimated
10:11AM 27.8614 111.2013 71° East  Level Estimated
10:12AM 27.9019 111.3380 71° East  Level Estimated
10:13AM 27.9422 111.4747 72° East  Level Estimated
10:14AM 27.9824 111.6116 72° East  Level Estimated
10:15AM 28.0225 111.7486 72° East  Level Estimated
10:16AM 28.0624 111.8857 72° East  Level Estimated
10:17AM 28.1022 112.0229 72° East  Level Estimated
10:18AM 28.1419 112.1601 72° East  Level Estimated
10:19AM 28.1814 112.2975 72° East  Level Estimated
10:20AM 28.2208 112.4350 72° East  Level Estimated
10:21AM 28.2601 112.5726 72° East  Level Estimated
10:22AM 28.2992 112.7103 72° East  Level Estimated
10:23AM 28.3382 112.8481 72° East  Level Estimated
10:24AM 28.3770 112.9860 72° East  Level Estimated
10:25AM 28.4157 113.1240 72° East  Level Estimated
10:26AM 28.4543 113.2620 72° East  Level Estimated
10:27AM 28.4927 113.4002 72° East  Level Estimated
10:28AM 28.5310 113.5385 72° East  Level Estimated
10:29AM 28.5691 113.6769 73° East  Level Estimated
10:30AM 28.6071 113.8154 73° East  Level Estimated
10:31AM 28.6450 113.9540 73° East  Level Estimated
10:32AM 28.6827 114.0927 73° East  Level Estimated
10:33AM 28.7203 114.2315 73° East  Level Estimated
10:34AM 28.7577 114.3704 73° East  Level Estimated
10:35AM 28.7950 114.5094 73° East  Level Estimated
10:36AM 28.8322 114.6485 73° East  Level Estimated
10:37AM 28.8692 114.7876 73° East  Level Estimated
10:38AM 28.9061 114.9269 73° East  Level Estimated
10:39AM 28.9428 115.0663 73° East  Level Estimated
10:40AM 28.9794 115.2058 73° East  Level Estimated
10:41AM 29.0158 115.3454 73° East  Level Estimated
10:42AM 29.0521 115.4851 73° East  Level Estimated
10:43AM 29.0882 115.6249 73° East  Level Estimated
10:44AM 29.1242 115.7647 74° East  Level Estimated
10:45AM 29.1601 115.9047 74° East  Level Estimated
10:46AM 29.1958 116.0448 74° East  Level Estimated
10:47AM 29.2314 116.1850 74° East  Level Estimated
10:48AM 29.2668 116.3252 74° East  Level Estimated
10:49AM 29.3021 116.4656 74° East  Level Estimated
10:50AM 29.3372 116.6061 74° East  Level Estimated
10:51AM 29.3722 116.7466 74° East  Level Estimated
10:52AM 29.4070 116.8873 74° East  Level Estimated
10:53AM 29.4417 117.0280 74° East  Level Estimated
10:54AM 29.4762 117.1689 74° East  Level Estimated
10:55AM 29.5106 117.3098 74° East  Level Estimated
10:56AM 29.5448 117.4509 74° East  Level Estimated
10:57AM 29.5789 117.5920 74° East  Level Estimated
10:58AM 29.6129 117.7333 75° East  Level Estimated
10:59AM 29.6467 117.8746 75° East  Level Estimated
11:00AM 29.6803 118.0160 75° East  Level Estimated
11:01AM 29.7138 118.1575 75° East  Level Estimated
11:02AM 29.7471 118.2991 75° East  Level Estimated
11:03AM 29.7803 118.4408 75° East  Level Estimated
11:04AM 29.8134 118.5826 75° East  Level Estimated
11:05AM 29.8462 118.7245 75° East  Level Estimated
11:06AM 29.8790 118.8665 75° East  Level Estimated
11:07AM 29.9116 119.0086 75° East  Level Estimated
11:08AM 29.9440 119.1507 75° East  Level Estimated
11:09AM 29.9763 119.2930 75° East  Level Estimated
11:10AM 30.0084 119.4354 75° East  Level Estimated
11:11AM 30.0403 119.5778 75° East  Level Estimated
11:12AM 30.0722 119.7204 76° East  Level Estimated
11:13AM 30.1038 119.8630 76° East  Level Estimated
11:14AM 30.1353 120.0057 76° East  Level Estimated
11:15AM 30.1667 120.1485 76° East  Level Estimated
11:16AM 30.1979 120.2914 76° East  Level Estimated
11:17AM 30.2283 120.4317 76° East  Level Estimated
11:18AM 30.2283 120.4317 319° Northwest  Level Estimated
11:19AM 30.2283 120.4317 319° Northwest  Level Estimated
11:20AM 30.2283 120.4317 319° Northwest  Level Estimated
11:21AM 30.2283 120.4317 319° Northwest  Level Estimated
11:22AM 30.2283 120.4317 319° Northwest  Level Estimated
11:23AM 30.2283 120.4317 319° Northwest  Level Estimated
11:24AM 30.2283 120.4317 319° Northwest  Level Estimated
11:25AM 30.2283 120.4317 319° Northwest  Level Estimated
11:26AM 30.2283 120.4317 319° Northwest  Level Estimated
11:27AM 30.2283 120.4317 319° Northwest  Level Estimated
11:28AM 30.2283 120.4317 319° Northwest  Level Estimated
11:29AM 30.2283 120.4317 319° Northwest  Level Estimated
11:30AM 30.2283 120.4317 319° Northwest  Level Estimated
11:31AM 30.2283 120.4317 319° Northwest  Level Estimated
11:32AM 30.2283 120.4317 319° Northwest  Level Estimated
11:33AM 30.2283 120.4317 319° Northwest  Level Estimated